Port Hope, MI (48468)

15:44 EDT le 28 juillet 2015 (GMT -0400)
Eastwatch-by-the-Sea | | Change Station
CLOSE
Current Station
Stations météorologiques personnelles
Location: Port Hope, MI
Altitude: 565 ft
Stations météo à proximité

Alt. 565 ft 43.95 °N, 82.72 °W | Updated 0 second ago

Partiellement nuageux
Partiellement nuageux
78.4 ° F
Paraît 81 ° F
N
0.9
Vent Variable Vent de Sud
Gusts 2.5 mph

Aujourd'hui
Haut(e) -- | Bas -- ° F
--% Risque de précip.
Hier
Haut(e) -- | Bas -- ° F
Precip. -- pouce
6:14 AM 8:59 PM
Lune gibbeuse croissante, 91% visible
Pression 30.02 pouce
Visibilité 10.0 Miles terrestres
Nuages Nuages épars 7000 ft
indice de chaleur 81 ° F
Point de rosée 73 ° F
Humidité 83%
Précipitations 0.00 pouce
Profondeur de la couche neigeuse Non disponible.
UV 4.0 sur 12
Pollen 6.30 sur 12
Qualité de l'air Non disponible.
Flu Activity Non disponible.
METAR KBAX 281909Z AUTO 00000KT 10SM SCT070 32/13 A3002 RMK AO2 T03160131

More Conditions Fewer Conditions

Pression 30.02 pouce
Visibilité 10.0 Miles terrestres
Nuages Nuages épars 7000 ft
indice de chaleur 81 ° F
Point de rosée 73 ° F
Humidité 83%
Précipitations 0.00 pouce
Profondeur de la couche neigeuse Non disponible.
UV 4.0 sur 12
Pollen 6.30 sur 12
Qualité de l'air Non disponible.
Flu Activity Non disponible.
METAR KBAX 281909Z AUTO 00000KT 10SM SCT070 32/13 A3002 RMK AO2 T03160131

More Conditions Fewer Conditions

10-Day Weather Forecast

×

Almanac

Astronomie

Jul. 28, 2015 Lever Coucher
Temps réel
Crépuscule civil
Crépuscule nautique
Crépuscule astronomique
Lune
Durée de lumière visible
Longueur du jour
Tomorrow will be .
, % of the Moon is Illuminated

Extrêmes aujourd'hui

State Highs State Lows

Community

WunderPhotos

Upload Photos

1,841,935 Photos téléchargées !

WunderBlogs® & News

Nearby

Qualité de l'air

  Qualité de l'air Indice de la qualité de l'air Polluant
Not available.

Épaisseur de neige

Station Depth Altitude

Activité sismique

Ville Distance Mag. Time & Date
Minimum magnitude displayed is 2.5.

Températures des eaux côtières

Lieu Température

Stations

Stations météo à proximité

Emplacement de la station Température Refroidissement éolien Point de rosée Humidité Vent Precip. Alt. Mise à jour Type